sensor_id;sensor_type;location;lat;lon;timestamp;temperature;humidity
35523;DHT22;61478;50.820;4.330;2023-03-23T00:00:29;13.10;99.90
35523;DHT22;61478;50.820;4.330;2023-03-23T00:02:55;13.10;99.90
35523;DHT22;61478;50.820;4.330;2023-03-23T00:05:24;13.10;99.90
35523;DHT22;61478;50.820;4.330;2023-03-23T00:07:50;13.10;99.90
35523;DHT22;61478;50.820;4.330;2023-03-23T00:10:17;13.10;99.90
35523;DHT22;61478;50.820;4.330;2023-03-23T00:12:43;13.10;99.90
35523;DHT22;61478;50.820;4.330;2023-03-23T00:15:13;13.10;99.90
35523;DHT22;61478;50.820;4.330;2023-03-23T00:17:50;13.10;99.90
35523;DHT22;61478;50.820;4.330;2023-03-23T00:20:18;13.10;99.90
35523;DHT22;61478;50.820;4.330;2023-03-23T00:22:44;13.10;99.90
35523;DHT22;61478;50.820;4.330;2023-03-23T00:25:10;13.10;99.90
35523;DHT22;61478;50.820;4.330;2023-03-23T00:27:36;13.10;99.90
35523;DHT22;61478;50.820;4.330;2023-03-23T00:30:03;13.10;99.90
35523;DHT22;61478;50.820;4.330;2023-03-23T00:32:29;13.10;99.90
35523;DHT22;61478;50.820;4.330;2023-03-23T00:34:56;13.10;99.90
35523;DHT22;61478;50.820;4.330;2023-03-23T00:37:24;13.10;99.90
35523;DHT22;61478;50.820;4.330;2023-03-23T00:39:50;13.10;99.90
35523;DHT22;61478;50.820;4.330;2023-03-23T00:42:17;13.00;99.90
35523;DHT22;61478;50.820;4.330;2023-03-23T00:44:43;13.10;99.90
35523;DHT22;61478;50.820;4.330;2023-03-23T00:47:10;13.00;99.90
35523;DHT22;61478;50.820;4.330;2023-03-23T00:49:37;13.10;99.90
35523;DHT22;61478;50.820;4.330;2023-03-23T00:52:06;13.00;99.90
35523;DHT22;61478;50.820;4.330;2023-03-23T00:54:32;13.10;99.90
35523;DHT22;61478;50.820;4.330;2023-03-23T00:56:59;13.00;99.90
35523;DHT22;61478;50.820;4.330;2023-03-23T00:59:26;13.00;99.90
35523;DHT22;61478;50.820;4.330;2023-03-23T01:01:52;13.00;99.90
35523;DHT22;61478;50.820;4.330;2023-03-23T01:04:18;13.00;99.90
35523;DHT22;61478;50.820;4.330;2023-03-23T01:06:48;13.00;99.90
35523;DHT22;61478;50.820;4.330;2023-03-23T01:09:16;13.00;99.90
35523;DHT22;61478;50.820;4.330;2023-03-23T01:11:46;13.00;99.90
35523;DHT22;61478;50.820;4.330;2023-03-23T01:14:14;13.00;99.90
35523;DHT22;61478;50.820;4.330;2023-03-23T01:16:41;13.00;99.90
35523;DHT22;61478;50.820;4.330;2023-03-23T01:19:07;13.00;99.90
35523;DHT22;61478;50.820;4.330;2023-03-23T01:21:39;13.00;99.90
35523;DHT22;61478;50.820;4.330;2023-03-23T01:24:05;13.00;99.90
35523;DHT22;61478;50.820;4.330;2023-03-23T01:26:31;13.00;99.90
35523;DHT22;61478;50.820;4.330;2023-03-23T01:28:58;13.00;99.90
35523;DHT22;61478;50.820;4.330;2023-03-23T01:31:25;13.00;99.90
35523;DHT22;61478;50.820;4.330;2023-03-23T01:33:52;13.00;99.90
35523;DHT22;61478;50.820;4.330;2023-03-23T01:36:24;13.00;99.90
35523;DHT22;61478;50.820;4.330;2023-03-23T01:38:52;13.00;99.90
35523;DHT22;61478;50.820;4.330;2023-03-23T01:41:19;13.00;99.90
35523;DHT22;61478;50.820;4.330;2023-03-23T01:44:05;13.00;99.90
35523;DHT22;61478;50.820;4.330;2023-03-23T01:46:33;13.00;99.90
35523;DHT22;61478;50.820;4.330;2023-03-23T01:52:06;13.00;99.90
35523;DHT22;61478;50.820;4.330;2023-03-23T01:54:34;13.10;99.90
35523;DHT22;61478;50.820;4.330;2023-03-23T01:57:07;13.00;99.90
35523;DHT22;61478;50.820;4.330;2023-03-23T01:59:36;13.00;99.90
35523;DHT22;61478;50.820;4.330;2023-03-23T02:02:03;13.00;99.90
35523;DHT22;61478;50.820;4.330;2023-03-23T02:04:30;12.90;99.90
35523;DHT22;61478;50.820;4.330;2023-03-23T02:06:57;13.00;99.90
35523;DHT22;61478;50.820;4.330;2023-03-23T02:09:26;13.00;99.90
35523;DHT22;61478;50.820;4.330;2023-03-23T02:11:53;12.90;99.90
35523;DHT22;61478;50.820;4.330;2023-03-23T02:14:20;12.90;99.90
35523;DHT22;61478;50.820;4.330;2023-03-23T02:16:58;13.00;99.90
35523;DHT22;61478;50.820;4.330;2023-03-23T02:25:47;13.00;99.90
35523;DHT22;61478;50.820;4.330;2023-03-23T02:36:47;12.90;99.90
35523;DHT22;61478;50.820;4.330;2023-03-23T02:39:23;12.90;99.90
35523;DHT22;61478;50.820;4.330;2023-03-23T02:41:54;12.90;99.90
35523;DHT22;61478;50.820;4.330;2023-03-23T02:44:24;12.90;99.90
35523;DHT22;61478;50.820;4.330;2023-03-23T02:46:57;12.90;99.90
35523;DHT22;61478;50.820;4.330;2023-03-23T02:49:25;12.90;99.90
35523;DHT22;61478;50.820;4.330;2023-03-23T02:51:53;12.90;99.90
35523;DHT22;61478;50.820;4.330;2023-03-23T02:54:20;12.90;99.90
35523;DHT22;61478;50.820;4.330;2023-03-23T02:56:48;12.90;99.90
35523;DHT22;61478;50.820;4.330;2023-03-23T02:59:16;12.90;99.90
35523;DHT22;61478;50.820;4.330;2023-03-23T03:04:18;12.80;99.90
35523;DHT22;61478;50.820;4.330;2023-03-23T03:09:49;12.80;99.90
35523;DHT22;61478;50.820;4.330;2023-03-23T03:15:10;12.90;99.90
35523;DHT22;61478;50.820;4.330;2023-03-23T03:17:47;12.90;99.90
35523;DHT22;61478;50.820;4.330;2023-03-23T03:20:18;12.80;99.90
35523;DHT22;61478;50.820;4.330;2023-03-23T03:22:47;12.80;99.90
35523;DHT22;61478;50.820;4.330;2023-03-23T03:25:17;12.90;99.90
35523;DHT22;61478;50.820;4.330;2023-03-23T03:27:49;12.90;99.90
35523;DHT22;61478;50.820;4.330;2023-03-23T03:30:21;12.90;99.90
35523;DHT22;61478;50.820;4.330;2023-03-23T03:32:51;12.90;99.90
35523;DHT22;61478;50.820;4.330;2023-03-23T03:35:26;12.90;99.90
35523;DHT22;61478;50.820;4.330;2023-03-23T03:37:56;12.90;99.90
35523;DHT22;61478;50.820;4.330;2023-03-23T03:40:23;12.90;99.90
35523;DHT22;61478;50.820;4.330;2023-03-23T03:42:56;12.90;99.90
35523;DHT22;61478;50.820;4.330;2023-03-23T03:45:27;12.90;99.90
35523;DHT22;61478;50.820;4.330;2023-03-23T03:47:56;12.90;99.90
35523;DHT22;61478;50.820;4.330;2023-03-23T03:50:22;12.90;99.90
35523;DHT22;61478;50.820;4.330;2023-03-23T03:52:49;12.90;99.90
35523;DHT22;61478;50.820;4.330;2023-03-23T03:55:15;12.90;99.90
35523;DHT22;61478;50.820;4.330;2023-03-23T03:57:43;12.90;99.90
35523;DHT22;61478;50.820;4.330;2023-03-23T04:00:09;12.90;99.90
35523;DHT22;61478;50.820;4.330;2023-03-23T04:02:45;12.90;99.90
35523;DHT22;61478;50.820;4.330;2023-03-23T04:05:17;12.90;99.90
35523;DHT22;61478;50.820;4.330;2023-03-23T04:07:46;12.90;99.90
35523;DHT22;61478;50.820;4.330;2023-03-23T04:10:16;12.90;99.90
35523;DHT22;61478;50.820;4.330;2023-03-23T04:13:01;12.90;99.90
35523;DHT22;61478;50.820;4.330;2023-03-23T04:15:27;12.80;99.90
35523;DHT22;61478;50.820;4.330;2023-03-23T04:17:53;12.80;99.90
35523;DHT22;61478;50.820;4.330;2023-03-23T04:20:19;12.80;99.90
35523;DHT22;61478;50.820;4.330;2023-03-23T04:22:46;12.80;99.90
35523;DHT22;61478;50.820;4.330;2023-03-23T04:25:16;12.80;99.90
35523;DHT22;61478;50.820;4.330;2023-03-23T04:27:43;12.80;99.90
35523;DHT22;61478;50.820;4.330;2023-03-23T04:30:12;12.70;99.90
35523;DHT22;61478;50.820;4.330;2023-03-23T04:32:39;12.70;99.90
35523;DHT22;61478;50.820;4.330;2023-03-23T04:35:11;12.70;99.90
35523;DHT22;61478;50.820;4.330;2023-03-23T04:37:37;12.70;99.90
35523;DHT22;61478;50.820;4.330;2023-03-23T04:40:05;12.70;99.90
35523;DHT22;61478;50.820;4.330;2023-03-23T04:42:35;12.70;99.90
35523;DHT22;61478;50.820;4.330;2023-03-23T04:45:03;12.70;99.90
35523;DHT22;61478;50.820;4.330;2023-03-23T04:47:33;12.70;99.90
35523;DHT22;61478;50.820;4.330;2023-03-23T04:50:00;12.70;99.90
35523;DHT22;61478;50.820;4.330;2023-03-23T04:52:35;12.70;99.90
35523;DHT22;61478;50.820;4.330;2023-03-23T04:55:05;12.60;99.90
35523;DHT22;61478;50.820;4.330;2023-03-23T04:57:34;12.60;99.90
35523;DHT22;61478;50.820;4.330;2023-03-23T05:00:02;12.60;99.90
35523;DHT22;61478;50.820;4.330;2023-03-23T05:02:36;12.60;99.90
35523;DHT22;61478;50.820;4.330;2023-03-23T05:05:06;12.60;99.90
35523;DHT22;61478;50.820;4.330;2023-03-23T05:07:32;12.60;99.90
35523;DHT22;61478;50.820;4.330;2023-03-23T05:09:58;12.60;99.90
35523;DHT22;61478;50.820;4.330;2023-03-23T05:12:25;12.50;99.90
35523;DHT22;61478;50.820;4.330;2023-03-23T05:14:51;12.50;99.90
35523;DHT22;61478;50.820;4.330;2023-03-23T05:17:17;12.50;99.90
35523;DHT22;61478;50.820;4.330;2023-03-23T05:19:44;12.50;99.90
35523;DHT22;61478;50.820;4.330;2023-03-23T05:22:13;12.50;99.90
35523;DHT22;61478;50.820;4.330;2023-03-23T05:24:40;12.50;99.90
35523;DHT22;61478;50.820;4.330;2023-03-23T05:27:09;12.50;99.90
35523;DHT22;61478;50.820;4.330;2023-03-23T05:29:35;12.60;99.90
35523;DHT22;61478;50.820;4.330;2023-03-23T05:32:07;12.50;99.90
35523;DHT22;61478;50.820;4.330;2023-03-23T05:34:34;12.50;99.90
35523;DHT22;61478;50.820;4.330;2023-03-23T05:37:02;12.50;99.90
35523;DHT22;61478;50.820;4.330;2023-03-23T05:39:30;12.50;99.90
35523;DHT22;61478;50.820;4.330;2023-03-23T05:41:57;12.50;99.90
35523;DHT22;61478;50.820;4.330;2023-03-23T05:44:23;12.50;99.90
35523;DHT22;61478;50.820;4.330;2023-03-23T05:46:49;12.50;99.90
35523;DHT22;61478;50.820;4.330;2023-03-23T05:49:19;12.50;99.90
35523;DHT22;61478;50.820;4.330;2023-03-23T05:51:45;12.50;99.90
35523;DHT22;61478;50.820;4.330;2023-03-23T05:54:12;12.50;99.90
35523;DHT22;61478;50.820;4.330;2023-03-23T05:56:38;12.50;99.90
35523;DHT22;61478;50.820;4.330;2023-03-23T05:59:09;12.50;99.90
35523;DHT22;61478;50.820;4.330;2023-03-23T06:01:37;12.50;99.90
35523;DHT22;61478;50.820;4.330;2023-03-23T06:04:04;12.50;99.90
35523;DHT22;61478;50.820;4.330;2023-03-23T06:06:33;12.50;99.90
35523;DHT22;61478;50.820;4.330;2023-03-23T06:08:59;12.50;99.90
35523;DHT22;61478;50.820;4.330;2023-03-23T06:11:25;12.50;99.90
35523;DHT22;61478;50.820;4.330;2023-03-23T06:13:52;12.50;99.90
35523;DHT22;61478;50.820;4.330;2023-03-23T06:16:18;12.50;99.90
35523;DHT22;61478;50.820;4.330;2023-03-23T06:18:44;12.50;99.90
35523;DHT22;61478;50.820;4.330;2023-03-23T06:21:11;12.50;99.90
35523;DHT22;61478;50.820;4.330;2023-03-23T06:23:44;12.50;99.90
35523;DHT22;61478;50.820;4.330;2023-03-23T06:26:13;12.60;99.90
35523;DHT22;61478;50.820;4.330;2023-03-23T06:28:42;12.60;99.90
35523;DHT22;61478;50.820;4.330;2023-03-23T06:31:08;12.60;99.90
35523;DHT22;61478;50.820;4.330;2023-03-23T06:33:38;12.60;99.90
35523;DHT22;61478;50.820;4.330;2023-03-23T06:36:07;12.60;99.90
35523;DHT22;61478;50.820;4.330;2023-03-23T06:38:33;12.60;99.90
35523;DHT22;61478;50.820;4.330;2023-03-23T06:40:59;12.60;99.90
35523;DHT22;61478;50.820;4.330;2023-03-23T06:43:25;12.60;99.90
35523;DHT22;61478;50.820;4.330;2023-03-23T06:45:52;12.70;99.90
35523;DHT22;61478;50.820;4.330;2023-03-23T06:48:18;12.70;99.90
35523;DHT22;61478;50.820;4.330;2023-03-23T06:50:45;12.70;99.90
35523;DHT22;61478;50.820;4.330;2023-03-23T06:53:12;12.60;99.90
35523;DHT22;61478;50.820;4.330;2023-03-23T06:55:38;12.50;99.90
35523;DHT22;61478;50.820;4.330;2023-03-23T06:58:05;12.40;99.90
35523;DHT22;61478;50.820;4.330;2023-03-23T07:00:32;12.40;99.90
35523;DHT22;61478;50.820;4.330;2023-03-23T07:03:01;12.40;99.90
35523;DHT22;61478;50.820;4.330;2023-03-23T07:05:29;12.40;99.90
35523;DHT22;61478;50.820;4.330;2023-03-23T07:07:56;12.30;99.90
35523;DHT22;61478;50.820;4.330;2023-03-23T07:10:21;12.30;99.90
35523;DHT22;61478;50.820;4.330;2023-03-23T07:12:47;12.30;99.90
35523;DHT22;61478;50.820;4.330;2023-03-23T07:15:14;12.20;99.90
35523;DHT22;61478;50.820;4.330;2023-03-23T07:17:41;12.30;99.90
35523;DHT22;61478;50.820;4.330;2023-03-23T07:20:07;11.80;99.90
35523;DHT22;61478;50.820;4.330;2023-03-23T07:22:36;12.00;99.90
35523;DHT22;61478;50.820;4.330;2023-03-23T07:25:05;11.80;99.90
35523;DHT22;61478;50.820;4.330;2023-03-23T07:27:31;11.60;99.90
35523;DHT22;61478;50.820;4.330;2023-03-23T07:29:57;11.30;99.90
35523;DHT22;61478;50.820;4.330;2023-03-23T07:32:23;11.30;99.90
35523;DHT22;61478;50.820;4.330;2023-03-23T07:34:50;11.20;99.90
35523;DHT22;61478;50.820;4.330;2023-03-23T07:37:16;11.30;99.90
35523;DHT22;61478;50.820;4.330;2023-03-23T07:39:42;11.50;99.90
35523;DHT22;61478;50.820;4.330;2023-03-23T07:42:09;11.50;99.90
35523;DHT22;61478;50.820;4.330;2023-03-23T07:44:35;11.50;99.90
35523;DHT22;61478;50.820;4.330;2023-03-23T07:47:02;11.50;99.90
35523;DHT22;61478;50.820;4.330;2023-03-23T07:49:27;11.60;99.90
35523;DHT22;61478;50.820;4.330;2023-03-23T07:51:54;11.60;99.90
35523;DHT22;61478;50.820;4.330;2023-03-23T07:54:19;11.70;99.90
35523;DHT22;61478;50.820;4.330;2023-03-23T07:56:45;11.70;99.90
35523;DHT22;61478;50.820;4.330;2023-03-23T07:59:11;11.70;99.90
35523;DHT22;61478;50.820;4.330;2023-03-23T08:01:39;11.70;99.90
35523;DHT22;61478;50.820;4.330;2023-03-23T08:04:05;11.70;99.90
35523;DHT22;61478;50.820;4.330;2023-03-23T08:06:33;11.80;99.90
35523;DHT22;61478;50.820;4.330;2023-03-23T08:08:59;11.60;99.90
35523;DHT22;61478;50.820;4.330;2023-03-23T08:11:26;11.60;99.90
35523;DHT22;61478;50.820;4.330;2023-03-23T08:13:52;11.50;99.90
35523;DHT22;61478;50.820;4.330;2023-03-23T08:16:19;11.40;99.90
35523;DHT22;61478;50.820;4.330;2023-03-23T08:18:47;11.40;99.90
35523;DHT22;61478;50.820;4.330;2023-03-23T08:21:13;11.40;99.90
35523;DHT22;61478;50.820;4.330;2023-03-23T08:23:39;11.30;99.90
35523;DHT22;61478;50.820;4.330;2023-03-23T08:26:06;11.30;99.90
35523;DHT22;61478;50.820;4.330;2023-03-23T08:28:36;11.20;99.90
35523;DHT22;61478;50.820;4.330;2023-03-23T08:31:12;11.10;99.90
35523;DHT22;61478;50.820;4.330;2023-03-23T08:33:39;11.10;99.90
35523;DHT22;61478;50.820;4.330;2023-03-23T08:36:07;11.10;99.90
35523;DHT22;61478;50.820;4.330;2023-03-23T08:38:34;11.10;99.90
35523;DHT22;61478;50.820;4.330;2023-03-23T08:41:03;11.00;99.90
35523;DHT22;61478;50.820;4.330;2023-03-23T08:43:33;11.10;99.90
35523;DHT22;61478;50.820;4.330;2023-03-23T08:45:59;11.20;99.90
35523;DHT22;61478;50.820;4.330;2023-03-23T08:48:27;11.10;99.90
35523;DHT22;61478;50.820;4.330;2023-03-23T08:50:53;11.20;99.90
35523;DHT22;61478;50.820;4.330;2023-03-23T08:53:19;11.20;99.90
35523;DHT22;61478;50.820;4.330;2023-03-23T08:55:47;11.10;99.90
35523;DHT22;61478;50.820;4.330;2023-03-23T08:58:13;11.10;99.90
35523;DHT22;61478;50.820;4.330;2023-03-23T09:00:38;11.10;99.90
35523;DHT22;61478;50.820;4.330;2023-03-23T09:03:05;11.10;99.90
35523;DHT22;61478;50.820;4.330;2023-03-23T09:05:31;11.10;99.90
35523;DHT22;61478;50.820;4.330;2023-03-23T09:07:58;11.00;99.90
35523;DHT22;61478;50.820;4.330;2023-03-23T09:10:26;11.00;99.90
35523;DHT22;61478;50.820;4.330;2023-03-23T09:12:53;11.00;99.90
35523;DHT22;61478;50.820;4.330;2023-03-23T09:15:20;11.00;99.90
35523;DHT22;61478;50.820;4.330;2023-03-23T09:17:48;11.00;99.90
35523;DHT22;61478;50.820;4.330;2023-03-23T09:20:22;11.10;99.90
35523;DHT22;61478;50.820;4.330;2023-03-23T09:22:52;11.10;99.90
35523;DHT22;61478;50.820;4.330;2023-03-23T09:25:20;11.10;99.90
35523;DHT22;61478;50.820;4.330;2023-03-23T09:27:49;11.10;99.90
35523;DHT22;61478;50.820;4.330;2023-03-23T09:30:19;11.10;99.90
35523;DHT22;61478;50.820;4.330;2023-03-23T09:32:46;11.20;99.90
35523;DHT22;61478;50.820;4.330;2023-03-23T09:35:14;11.30;99.90
35523;DHT22;61478;50.820;4.330;2023-03-23T09:37:45;11.30;99.90
35523;DHT22;61478;50.820;4.330;2023-03-23T09:40:24;11.40;99.90
35523;DHT22;61478;50.820;4.330;2023-03-23T09:43:02;11.60;99.90
35523;DHT22;61478;50.820;4.330;2023-03-23T09:45:54;11.70;99.90
35523;DHT22;61478;50.820;4.330;2023-03-23T09:48:37;12.00;99.90
35523;DHT22;61478;50.820;4.330;2023-03-23T09:53:59;12.50;99.90
35523;DHT22;61478;50.820;4.330;2023-03-23T09:56:30;12.60;99.90
35523;DHT22;61478;50.820;4.330;2023-03-23T09:59:10;12.60;99.90
35523;DHT22;61478;50.820;4.330;2023-03-23T10:01:53;12.60;99.90
35523;DHT22;61478;50.820;4.330;2023-03-23T10:04:30;12.50;99.90
35523;DHT22;61478;50.820;4.330;2023-03-23T10:07:10;12.60;99.90
35523;DHT22;61478;50.820;4.330;2023-03-23T10:09:37;12.50;99.90
35523;DHT22;61478;50.820;4.330;2023-03-23T10:12:42;12.60;99.90
35523;DHT22;61478;50.820;4.330;2023-03-23T10:18:38;12.60;99.90
35523;DHT22;61478;50.820;4.330;2023-03-23T10:20:59;12.70;99.90
35523;DHT22;61478;50.820;4.330;2023-03-23T10:29:07;12.80;99.90
35523;DHT22;61478;50.820;4.330;2023-03-23T10:31:45;12.90;99.90
35523;DHT22;61478;50.820;4.330;2023-03-23T10:37:05;12.90;99.90
35523;DHT22;61478;50.820;4.330;2023-03-23T10:39:42;13.00;99.90
35523;DHT22;61478;50.820;4.330;2023-03-23T10:42:10;13.00;99.90
35523;DHT22;61478;50.820;4.330;2023-03-23T10:44:36;13.00;99.90
35523;DHT22;61478;50.820;4.330;2023-03-23T10:47:06;13.10;99.90
35523;DHT22;61478;50.820;4.330;2023-03-23T10:49:41;13.20;99.90
35523;DHT22;61478;50.820;4.330;2023-03-23T10:52:14;13.30;99.90
35523;DHT22;61478;50.820;4.330;2023-03-23T10:54:57;13.40;99.90
35523;DHT22;61478;50.820;4.330;2023-03-23T10:57:29;13.50;99.90
35523;DHT22;61478;50.820;4.330;2023-03-23T11:00:00;13.70;99.90
35523;DHT22;61478;50.820;4.330;2023-03-23T11:02:27;13.70;99.90
35523;DHT22;61478;50.820;4.330;2023-03-23T11:04:57;13.80;99.90
35523;DHT22;61478;50.820;4.330;2023-03-23T11:07:28;14.00;99.90
35523;DHT22;61478;50.820;4.330;2023-03-23T11:09:57;14.20;99.90
35523;DHT22;61478;50.820;4.330;2023-03-23T11:12:33;14.10;99.90
35523;DHT22;61478;50.820;4.330;2023-03-23T11:17:58;14.10;99.90
35523;DHT22;61478;50.820;4.330;2023-03-23T11:20:27;14.10;99.90
35523;DHT22;61478;50.820;4.330;2023-03-23T11:22:55;14.20;99.90
35523;DHT22;61478;50.820;4.330;2023-03-23T11:25:21;14.50;99.90
35523;DHT22;61478;50.820;4.330;2023-03-23T11:27:49;14.70;99.90
35523;DHT22;61478;50.820;4.330;2023-03-23T11:30:23;15.10;99.90
35523;DHT22;61478;50.820;4.330;2023-03-23T11:32:55;15.40;99.90
35523;DHT22;61478;50.820;4.330;2023-03-23T11:35:30;15.50;99.90
35523;DHT22;61478;50.820;4.330;2023-03-23T11:37:57;15.40;99.90
35523;DHT22;61478;50.820;4.330;2023-03-23T11:40:29;15.30;99.90
35523;DHT22;61478;50.820;4.330;2023-03-23T11:43:14;15.40;99.90
35523;DHT22;61478;50.820;4.330;2023-03-23T11:46:18;15.70;99.90
35523;DHT22;61478;50.820;4.330;2023-03-23T11:48:55;16.10;99.90
35523;DHT22;61478;50.820;4.330;2023-03-23T11:51:34;15.80;99.90
35523;DHT22;61478;50.820;4.330;2023-03-23T11:56:42;15.70;99.90
35523;DHT22;61478;50.820;4.330;2023-03-23T11:59:14;15.80;99.90
35523;DHT22;61478;50.820;4.330;2023-03-23T12:07:52;16.00;99.90
35523;DHT22;61478;50.820;4.330;2023-03-23T12:10:30;15.70;99.90
35523;DHT22;61478;50.820;4.330;2023-03-23T12:16:22;16.10;99.90
35523;DHT22;61478;50.820;4.330;2023-03-23T12:19:25;16.20;99.90
35523;DHT22;61478;50.820;4.330;2023-03-23T12:30:24;16.20;99.90
35523;DHT22;61478;50.820;4.330;2023-03-23T12:33:18;16.20;99.90
35523;DHT22;61478;50.820;4.330;2023-03-23T12:35:56;16.40;99.90
35523;DHT22;61478;50.820;4.330;2023-03-23T12:41:17;16.20;99.90
35523;DHT22;61478;50.820;4.330;2023-03-23T12:43:59;16.00;99.90
35523;DHT22;61478;50.820;4.330;2023-03-23T12:49:29;16.30;99.90
35523;DHT22;61478;50.820;4.330;2023-03-23T12:55:13;16.20;99.90
35523;DHT22;61478;50.820;4.330;2023-03-23T12:57:56;16.10;99.90
35523;DHT22;61478;50.820;4.330;2023-03-23T13:06:08;16.20;99.90
35523;DHT22;61478;50.820;4.330;2023-03-23T13:08:42;16.40;99.90
35523;DHT22;61478;50.820;4.330;2023-03-23T13:11:34;16.50;99.90
35523;DHT22;61478;50.820;4.330;2023-03-23T13:14:21;16.60;99.90
35523;DHT22;61478;50.820;4.330;2023-03-23T13:25:50;16.60;99.90
35523;DHT22;61478;50.820;4.330;2023-03-23T13:28:21;16.60;99.90
35523;DHT22;61478;50.820;4.330;2023-03-23T13:31:11;16.80;99.90
35523;DHT22;61478;50.820;4.330;2023-03-23T13:33:44;16.90;99.90
35523;DHT22;61478;50.820;4.330;2023-03-23T13:36:13;17.00;99.90
35523;DHT22;61478;50.820;4.330;2023-03-23T13:38:47;16.90;99.90
35523;DHT22;61478;50.820;4.330;2023-03-23T13:41:15;16.60;99.90
35523;DHT22;61478;50.820;4.330;2023-03-23T13:43:50;16.40;99.90
35523;DHT22;61478;50.820;4.330;2023-03-23T13:46:29;16.40;99.90
35523;DHT22;61478;50.820;4.330;2023-03-23T13:54:24;15.90;99.90
35523;DHT22;61478;50.820;4.330;2023-03-23T13:56:57;15.90;99.90
35523;DHT22;61478;50.820;4.330;2023-03-23T13:59:49;15.50;99.90
35523;DHT22;61478;50.820;4.330;2023-03-23T14:02:39;15.00;99.90
35523;DHT22;61478;50.820;4.330;2023-03-23T14:05:36;14.80;99.90
35523;DHT22;61478;50.820;4.330;2023-03-23T14:13:20;14.80;99.90
35523;DHT22;61478;50.820;4.330;2023-03-23T14:18:54;14.80;99.90
35523;DHT22;61478;50.820;4.330;2023-03-23T14:21:38;15.00;99.90
35523;DHT22;61478;50.820;4.330;2023-03-23T14:26:54;15.30;99.90
35523;DHT22;61478;50.820;4.330;2023-03-23T14:29:26;15.30;99.90
35523;DHT22;61478;50.820;4.330;2023-03-23T14:31:57;15.30;99.90
35523;DHT22;61478;50.820;4.330;2023-03-23T14:34:31;15.30;99.90
35523;DHT22;61478;50.820;4.330;2023-03-23T14:36:59;15.30;99.90
35523;DHT22;61478;50.820;4.330;2023-03-23T14:39:27;15.20;99.90
35523;DHT22;61478;50.820;4.330;2023-03-23T14:41:55;15.00;99.90
35523;DHT22;61478;50.820;4.330;2023-03-23T14:44:42;14.90;99.90
35523;DHT22;61478;50.820;4.330;2023-03-23T14:47:27;14.90;99.90
35523;DHT22;61478;50.820;4.330;2023-03-23T14:49:59;14.90;99.90
35523;DHT22;61478;50.820;4.330;2023-03-23T14:52:33;15.00;99.90
35523;DHT22;61478;50.820;4.330;2023-03-23T14:55:13;15.10;99.90
35523;DHT22;61478;50.820;4.330;2023-03-23T14:57:41;15.20;99.90
35523;DHT22;61478;50.820;4.330;2023-03-23T15:00:28;15.30;99.90
35523;DHT22;61478;50.820;4.330;2023-03-23T15:02:56;15.40;99.90
35523;DHT22;61478;50.820;4.330;2023-03-23T15:05:31;15.40;99.90
35523;DHT22;61478;50.820;4.330;2023-03-23T15:08:19;15.40;99.90
35523;DHT22;61478;50.820;4.330;2023-03-23T15:11:03;15.40;99.90
35523;DHT22;61478;50.820;4.330;2023-03-23T15:13:30;15.40;99.90
35523;DHT22;61478;50.820;4.330;2023-03-23T15:16:07;15.50;99.90
35523;DHT22;61478;50.820;4.330;2023-03-23T15:18:49;15.60;99.90
35523;DHT22;61478;50.820;4.330;2023-03-23T15:21:33;15.70;99.90
35523;DHT22;61478;50.820;4.330;2023-03-23T15:24:17;15.70;99.90
35523;DHT22;61478;50.820;4.330;2023-03-23T15:26:47;15.60;99.90
35523;DHT22;61478;50.820;4.330;2023-03-23T15:29:17;15.60;99.90
35523;DHT22;61478;50.820;4.330;2023-03-23T15:32:03;15.60;99.90
35523;DHT22;61478;50.820;4.330;2023-03-23T15:34:36;15.60;99.90
35523;DHT22;61478;50.820;4.330;2023-03-23T15:37:17;15.60;99.90
35523;DHT22;61478;50.820;4.330;2023-03-23T15:39:44;15.50;99.90
35523;DHT22;61478;50.820;4.330;2023-03-23T15:42:22;15.40;99.90
35523;DHT22;61478;50.820;4.330;2023-03-23T15:47:38;15.40;99.90
35523;DHT22;61478;50.820;4.330;2023-03-23T15:50:18;15.40;99.90
35523;DHT22;61478;50.820;4.330;2023-03-23T15:52:45;15.30;99.90
35523;DHT22;61478;50.820;4.330;2023-03-23T15:55:34;15.40;99.90
35523;DHT22;61478;50.820;4.330;2023-03-23T15:58:04;15.50;99.90
35523;DHT22;61478;50.820;4.330;2023-03-23T16:00:31;15.50;99.90
35523;DHT22;61478;50.820;4.330;2023-03-23T16:03:00;15.60;99.90
35523;DHT22;61478;50.820;4.330;2023-03-23T16:05:26;15.60;99.90
35523;DHT22;61478;50.820;4.330;2023-03-23T16:07:52;15.60;99.90
35523;DHT22;61478;50.820;4.330;2023-03-23T16:10:22;15.60;99.90
35523;DHT22;61478;50.820;4.330;2023-03-23T16:12:48;15.40;99.90
35523;DHT22;61478;50.820;4.330;2023-03-23T16:15:17;15.40;99.90
35523;DHT22;61478;50.820;4.330;2023-03-23T16:17:44;15.50;99.90
35523;DHT22;61478;50.820;4.330;2023-03-23T16:20:19;15.50;99.90
35523;DHT22;61478;50.820;4.330;2023-03-23T16:22:46;15.50;99.90
35523;DHT22;61478;50.820;4.330;2023-03-23T16:25:12;15.50;99.90
35523;DHT22;61478;50.820;4.330;2023-03-23T16:27:40;15.50;99.90
35523;DHT22;61478;50.820;4.330;2023-03-23T16:30:26;15.60;99.90
35523;DHT22;61478;50.820;4.330;2023-03-23T16:32:55;15.60;99.90
35523;DHT22;61478;50.820;4.330;2023-03-23T16:35:21;15.50;99.90
35523;DHT22;61478;50.820;4.330;2023-03-23T16:37:49;15.50;99.90
35523;DHT22;61478;50.820;4.330;2023-03-23T16:40:19;15.50;99.90
35523;DHT22;61478;50.820;4.330;2023-03-23T16:42:46;15.40;99.90
35523;DHT22;61478;50.820;4.330;2023-03-23T16:45:13;15.30;99.90
35523;DHT22;61478;50.820;4.330;2023-03-23T16:47:45;15.30;99.90
35523;DHT22;61478;50.820;4.330;2023-03-23T16:50:14;15.30;99.90
35523;DHT22;61478;50.820;4.330;2023-03-23T16:52:44;15.30;99.90
35523;DHT22;61478;50.820;4.330;2023-03-23T16:55:13;15.30;99.90
35523;DHT22;61478;50.820;4.330;2023-03-23T16:57:39;15.30;99.90
35523;DHT22;61478;50.820;4.330;2023-03-23T17:00:08;15.20;99.90
35523;DHT22;61478;50.820;4.330;2023-03-23T17:02:36;15.20;99.90
35523;DHT22;61478;50.820;4.330;2023-03-23T17:05:02;15.20;99.90
35523;DHT22;61478;50.820;4.330;2023-03-23T17:07:29;15.20;99.90
35523;DHT22;61478;50.820;4.330;2023-03-23T17:09:54;15.10;99.90
35523;DHT22;61478;50.820;4.330;2023-03-23T17:12:20;15.20;99.90
35523;DHT22;61478;50.820;4.330;2023-03-23T17:14:47;15.10;99.90
35523;DHT22;61478;50.820;4.330;2023-03-23T17:17:16;15.10;99.90
35523;DHT22;61478;50.820;4.330;2023-03-23T17:19:43;15.10;99.90
35523;DHT22;61478;50.820;4.330;2023-03-23T17:22:09;15.20;99.90
35523;DHT22;61478;50.820;4.330;2023-03-23T17:24:35;15.20;99.90
35523;DHT22;61478;50.820;4.330;2023-03-23T17:27:00;15.10;99.90
35523;DHT22;61478;50.820;4.330;2023-03-23T17:29:26;15.10;99.90
35523;DHT22;61478;50.820;4.330;2023-03-23T17:31:52;15.10;99.90
35523;DHT22;61478;50.820;4.330;2023-03-23T17:34:19;15.10;99.90
35523;DHT22;61478;50.820;4.330;2023-03-23T17:36:44;15.10;99.90